WetterOnline ( http://www.wetteronline.de )

Wetter aktuell Bonn

Aktuelles Wetter: Roleber (162m)

6-stündlich | Neueste Meldungen
Ortszeit Temperatur Wetter
Do, 20.09. 20:00 22.7° C wolkig
Do, 20.09. 14:00 26.2° C wolkig
Do, 20.09. 8:00 16.3° C wolkig
Do, 20.09. 2:00 16.3° C wolkig
Mi, 19.09. 20:00 25.3° C wolkenlos
Mi, 19.09. 14:00 27.3° C wolkig
Mi, 19.09. 8:00 15.8° C fast wolkenlos
Mi, 19.09. 2:00 19.3° C bedeckt
Ortszeit Temperatur Wetter
Fr, 21.09. 1:30 19.8° C wolkig
Fr, 21.09. 1:10 19.4° C bedeckt
Fr, 21.09. 1:00 18.7° C bedeckt
Fr, 21.09. 0:50 18.7° C bedeckt
Fr, 21.09. 0:40 18.8° C bedeckt
Fr, 21.09. 0:30 19.8° C bedeckt
Fr, 21.09. 0:00 19.6° C bedeckt
Do, 20.09. 23:30 19.8° C bedeckt
Do, 20.09. 23:00 22.0° C wolkig
Do, 20.09. 22:30 22.2° C wolkig
Ortszeit Relative Feuchte Sichtweite
Do, 20.09. 20:00 41% 40 km
Do, 20.09. 14:00 41% 30 km
Do, 20.09. 8:00 77% 29 km
Do, 20.09. 2:00 78% 28 km
Mi, 19.09. 20:00 47% 35 km
Mi, 19.09. 14:00 45% 30 km
Mi, 19.09. 8:00 83% 22 km
Mi, 19.09. 2:00 65% 40 km
Ortszeit Relative Feuchte Sichtweite
Fr, 21.09. 1:30 60% 45 km
Fr, 21.09. 1:10 62% -
Fr, 21.09. 1:00 63% 40 km
Fr, 21.09. 0:50 63% -
Fr, 21.09. 0:40 62% -
Fr, 21.09. 0:30 58% 45 km
Fr, 21.09. 0:00 59% 45 km
Do, 20.09. 23:30 57% 45 km
Do, 20.09. 23:00 48% 45 km
Do, 20.09. 22:30 47% 45 km
Ortszeit Niederschlagsmenge Niederschlagsart
Do, 20.09. 20:00 0.0 l/m2 in 12 Std. -
Do, 20.09. 14:00 0.0 l/m2 in 6 Std. -
Do, 20.09. 8:00 0.0 l/m2 in 12 Std. -
Do, 20.09. 2:00 0.0 l/m2 in 6 Std. -
Mi, 19.09. 20:00 0.0 l/m2 in 12 Std. -
Mi, 19.09. 14:00 0.0 l/m2 in 6 Std. -
Mi, 19.09. 8:00 0.0 l/m2 in 12 Std. -
Mi, 19.09. 2:00 0.0 l/m2 in 6 Std. -
Ortszeit Niederschlagsmenge Niederschlagsart
Fr, 21.09. 1:30 0.0 l/m2 in 1 Std. -
Fr, 21.09. 1:10 keine Meldung -
Fr, 21.09. 1:00 0.0 l/m2 in 1 Std. -
Fr, 21.09. 0:50 keine Meldung -
Fr, 21.09. 0:40 keine Meldung -
Fr, 21.09. 0:30 0.0 l/m2 in 1 Std. -
Fr, 21.09. 0:00 0.0 l/m2 in 1 Std. -
Do, 20.09. 23:30 0.0 l/m2 in 1 Std. -
Do, 20.09. 23:00 0.0 l/m2 in 1 Std. -
Do, 20.09. 22:30 0.0 l/m2 in 1 Std. -
Ortszeit Stärke Spitze Richtung
km/h Bft. km/h Grad Sektor
Do, 20.09. 20:00 11 2 36 190° S
Do, 20.09. 14:00 19 3 35 200° S
Do, 20.09. 8:00 11 2 24 200° S
Do, 20.09. 2:00 7 2 25 210° SW
Mi, 19.09. 20:00 11 2 40 220° SW
Mi, 19.09. 14:00 18 3 36 200° S
Mi, 19.09. 8:00 7 2 18 210° SW
Mi, 19.09. 2:00 4 1 25 270° W
Ortszeit Stärke Spitze Richtung
km/h Bft. km/h Grad Sektor
Fr, 21.09. 1:30 11 2 18 130° SO
Fr, 21.09. 1:10 11 2 - 130° SO
Fr, 21.09. 1:00 9 2 17 140° SO
Fr, 21.09. 0:50 9 2 - 140° SO
Fr, 21.09. 0:40 7 2 - 140° SO
Fr, 21.09. 0:30 11 2 18 140° SO
Fr, 21.09. 0:00 11 2 18 150° SO
Do, 20.09. 23:30 9 2 15 150° SO
Do, 20.09. 23:00 13 3 24 190° S
Do, 20.09. 22:30 13 3 24 190° S
Ortszeit Untergrenze Bedeckung Gattung
total tief tief mittel hoch
Do, 20.09. 20:00 9000 m 8/8 0/8 - - -
Do, 20.09. 14:00 1500 m 7/8 2/8 - - -
Do, 20.09. 8:00 8700 m 7/8 0/8 - - -
Do, 20.09. 2:00 8400 m 8/8 0/8 - - -
Mi, 19.09. 20:00 - 0/8 0/8 - - -
Mi, 19.09. 14:00 1500 m 6/8 4/8 - - -
Mi, 19.09. 8:00 9000 m 2/8 0/8 - - -
Mi, 19.09. 2:00 5100 m 8/8 8/8 - - -
Ortszeit Bedeckungsgrad in Achtel und Wolkenuntergrenze
Fr, 21.09. 1:30 8(7200m)
Fr, 21.09. 1:10 8(6900m) 8(9000m)
Fr, 21.09. 1:00 8(6900m) 8(8700m) 8(9000m)
Fr, 21.09. 0:50 8(6900m) 8(8700m) 8(9000m)
Fr, 21.09. 0:40 8(6900m) 8(8700m) 8(9000m)
Fr, 21.09. 0:30 8(6600m) 8(9000m) 8(9000m)
Fr, 21.09. 0:00 8(6600m) 8(10500m) 8(10500m)
Do, 20.09. 23:30 8(6300m) 8(9000m) 8(9000m)
Do, 20.09. 23:00 3(6600m) 8(7200m) 8(10500m)
Do, 20.09. 22:30 2(6900m) 8(8400m) 8(9000m)
Ortszeit Luftdruck NN (hPa) Tendenz (hPa in 3 Std.)
Do, 20.09. 20:00 1014 - 1,5
Do, 20.09. 14:00 1017 - 1,6
Do, 20.09. 8:00 1019 - 0,1
Do, 20.09. 2:00 1019 + 0,1
Mi, 19.09. 20:00 1017 + 0,7
Mi, 19.09. 14:00 1017 - 1,1
Mi, 19.09. 8:00 1019 + 0,6
Mi, 19.09. 2:00 1017 + 0,7
Ortszeit Luftdruck NN (hPa) Tendenz (hPa in 3 Std.)
Fr, 21.09. 1:30 1011 - 2,0
Fr, 21.09. 1:10 1011 keine Meldung
Fr, 21.09. 1:00 1011 - 1,9
Fr, 21.09. 0:50 1011 keine Meldung
Fr, 21.09. 0:40 1011 keine Meldung
Fr, 21.09. 0:30 1011 - 1,7
Fr, 21.09. 0:00 1012 - 1,7
Do, 20.09. 23:30 1012 - 1,5
Do, 20.09. 23:00 1012 - 1,4
Do, 20.09. 22:30 1012 - 1,2
Ortszeit Schneehöhe (cm)
Do, 20.09. 20:00 -
Do, 20.09. 14:00 -
Do, 20.09. 8:00 -
Do, 20.09. 2:00 -
Mi, 19.09. 20:00 -
Mi, 19.09. 14:00 -
Mi, 19.09. 8:00 -
Mi, 19.09. 2:00 -
Ortszeit Schneehöhe (cm)
Fr, 21.09. 1:30 -
Fr, 21.09. 1:10 -
Fr, 21.09. 1:00 -
Fr, 21.09. 0:50 -
Fr, 21.09. 0:40 -
Fr, 21.09. 0:30 -
Fr, 21.09. 0:00 -
Do, 20.09. 23:30 -
Do, 20.09. 23:00 -
Do, 20.09. 22:30 -
Link zu dieser Seite / Seite empfehlen

Das Wetter in ...